Time,TemperatureF,DewpointF,PressureIn,WindDirection,WindDirectionDegrees,WindSpeedMPH,WindSpeedGustMPH,Humidity,HourlyPrecipIn,Conditions,Clouds,dailyrainin,SoftwareType,DateUTC
2013-05-27 00:00:00,53.0,49.2,30.24,SSW,205,0.0,0.0,87,0.00,CLR,,0.00,WeatherDisplay:10.37,2013-05-27 04:00:00,
2013-05-27 00:15:00,52.7,48.9,30.24,SSW,205,0.0,0.0,87,0.00,CLR,,0.00,WeatherDisplay:10.37,2013-05-27 04:15:00,
2013-05-27 00:30:00,52.3,48.9,30.25,SSW,205,0.0,0.0,88,0.00,CLR,,0.00,WeatherDisplay:10.37,2013-05-27 04:30:00,
2013-05-27 00:45:00,52.0,48.9,30.25,SSW,205,0.0,0.0,89,0.00,CLR,,0.00,WeatherDisplay:10.37,2013-05-27 04:45:00,
2013-05-27 01:00:00,51.7,48.6,30.25,SSW,205,0.0,0.0,89,0.00,CLR,,0.00,WeatherDisplay:10.37,2013-05-27 05:00:00,
2013-05-27 01:15:00,51.4,48.6,30.25,SSW,205,0.0,0.0,90,0.00,CLR,,0.00,WeatherDisplay:10.37,2013-05-27 05:15:00,
2013-05-27 01:30:00,51.1,48.3,30.25,SSW,205,0.0,0.0,90,0.00,CLR,,0.00,WeatherDisplay:10.37,2013-05-27 05:30:00,
2013-05-27 01:45:00,50.9,48.0,30.26,SSW,205,0.0,0.0,90,0.00,CLR,,0.00,WeatherDisplay:10.37,2013-05-27 05:45:00,
2013-05-27 02:00:00,50.6,47.8,30.25,SSW,205,0.0,0.0,90,0.00,CLR,,0.00,WeatherDisplay:10.37,2013-05-27 06:00:00,
2013-05-27 02:15:00,50.5,48.0,30.25,SSW,205,0.0,0.0,91,0.00,CLR,,0.00,WeatherDisplay:10.37,2013-05-27 06:15:00,
2013-05-27 02:30:00,50.3,47.8,30.25,SSW,205,0.0,0.0,91,0.00,CLR,,0.00,WeatherDisplay:10.37,2013-05-27 06:30:00,
2013-05-27 02:45:00,50.1,47.6,30.25,SSW,205,0.0,0.0,91,0.00,CLR,,0.00,WeatherDisplay:10.37,2013-05-27 06:45:00,
2013-05-27 03:00:00,49.9,47.4,30.25,SSW,205,0.0,0.0,91,0.00,CLR,,0.00,WeatherDisplay:10.37,2013-05-27 07:00:00,
2013-05-27 03:15:00,50.2,48.0,30.25,SSW,205,0.0,0.0,92,0.00,CLR,,0.00,WeatherDisplay:10.37,2013-05-27 07:15:00,
2013-05-27 03:30:00,50.4,48.5,30.25,SSW,205,0.0,0.0,93,0.00,CLR,,0.00,WeatherDisplay:10.37,2013-05-27 07:30:00,
2013-05-27 03:45:00,50.3,48.1,30.25,SSW,205,0.0,0.0,92,0.00,CLR,,0.00,WeatherDisplay:10.37,2013-05-27 07:45:00,
2013-05-27 04:00:00,50.3,48.1,30.25,SSW,205,0.0,0.0,92,0.00,CLR,,0.00,WeatherDisplay:10.37,2013-05-27 08:00:00,
2013-05-27 04:15:00,50.3,48.4,30.25,SSW,205,0.0,0.0,93,0.00,CLR,,0.00,WeatherDisplay:10.37,2013-05-27 08:15:00,
2013-05-27 04:30:00,50.0,48.1,30.25,SSW,205,0.0,0.0,93,0.00,CLR,,0.00,WeatherDisplay:10.37,2013-05-27 08:30:00,
2013-05-27 04:45:00,49.7,47.8,30.25,SSW,205,0.0,0.0,93,0.00,CLR,,0.00,WeatherDisplay:10.37,2013-05-27 08:45:00,
2013-05-27 05:00:00,49.4,47.5,30.26,SSW,205,0.0,0.0,93,0.00,CLR,,0.00,WeatherDisplay:10.37,2013-05-27 09:00:00,
2013-05-27 05:15:00,49.1,47.2,30.26,SSW,205,0.0,0.0,93,0.00,CLR,,0.00,WeatherDisplay:10.37,2013-05-27 09:15:00,
2013-05-27 05:30:00,48.8,46.9,30.26,SSW,205,0.0,0.0,93,0.00,CLR,,0.00,WeatherDisplay:10.37,2013-05-27 09:30:00,
2013-05-27 05:45:00,48.7,46.7,30.26,SSW,205,0.0,0.0,93,0.00,CLR,,0.00,WeatherDisplay:10.37,2013-05-27 09:45:00,
2013-05-27 06:00:00,48.4,46.5,30.27,SSW,205,0.0,0.0,93,0.00,CLR,,0.00,WeatherDisplay:10.37,2013-05-27 10:00:00,
2013-05-27 06:15:00,48.3,46.7,30.28,SSW,206,0.0,0.0,94,0.00,CLR,,0.00,WeatherDisplay:10.37,2013-05-27 10:15:00,
2013-05-27 06:30:00,48.3,46.7,30.28,SSW,206,0.0,0.0,94,0.00,CLR,,0.00,WeatherDisplay:10.37,2013-05-27 10:30:00,
2013-05-27 06:45:00,48.5,46.9,30.29,SSW,206,0.0,0.0,94,0.00,CLR,,0.00,WeatherDisplay:10.37,2013-05-27 10:45:00,
2013-05-27 07:00:00,48.8,47.2,30.29,SSW,205,0.0,0.0,94,0.00,CLR,,0.00,WeatherDisplay:10.37,2013-05-27 11:00:00,
2013-05-27 07:15:00,49.4,48.0,30.29,SSW,205,0.0,0.0,95,0.00,CLR,,0.00,WeatherDisplay:10.37,2013-05-27 11:15:00,
2013-05-27 07:30:00,50.9,49.8,30.30,SSW,205,0.0,0.0,96,0.00,CLR,,0.00,WeatherDisplay:10.37,2013-05-27 11:30:00,
2013-05-27 07:45:00,53.9,52.8,30.30,SSW,205,0.0,1.0,96,0.00,CLR,,0.00,WeatherDisplay:10.37,2013-05-27 11:45:00,
2013-05-27 08:00:00,56.8,55.7,30.30,SSW,205,0.0,1.0,96,0.00,CLR,,0.00,WeatherDisplay:10.37,2013-05-27 12:00:00,
2013-05-27 08:15:00,59.2,55.6,30.30,SSW,205,0.0,1.0,88,0.00,CLR,,0.00,WeatherDisplay:10.37,2013-05-27 12:15:00,
2013-05-27 08:30:00,61.2,55.3,30.31,SSW,205,0.0,0.0,81,0.00,CLR,,0.00,WeatherDisplay:10.37,2013-05-27 12:30:00,
2013-05-27 08:45:00,61.9,53.1,30.31,SSW,203,1.0,3.0,73,0.00,CLR,,0.00,WeatherDisplay:10.37,2013-05-27 12:45:00,
2013-05-27 09:00:00,63.0,54.6,30.31,SSW,202,0.0,4.0,74,0.00,CLR,,0.00,WeatherDisplay:10.37,2013-05-27 13:00:00,
2013-05-27 09:15:00,65.4,54.6,30.31,South,183,1.0,4.0,68,0.00,CLR,,0.00,WeatherDisplay:10.37,2013-05-27 13:15:00,
2013-05-27 09:30:00,67.7,54.6,30.31,SSW,197,1.0,6.0,63,0.00,CLR,,0.00,WeatherDisplay:10.37,2013-05-27 13:30:00,
2013-05-27 09:45:00,68.5,55.4,30.31,South,191,1.0,8.0,63,0.00,CLR,,0.00,WeatherDisplay:10.37,2013-05-27 13:45:00,
2013-05-27 10:00:00,69.6,55.1,30.31,SSW,204,1.0,8.0,60,0.00,CLR,,0.00,WeatherDisplay:10.37,2013-05-27 14:00:00,
2013-05-27 10:15:00,70.3,54.8,30.30,WSW,242,2.0,10.0,58,0.00,CLR,,0.00,WeatherDisplay:10.37,2013-05-27 14:15:00,
2013-05-27 10:30:00,71.1,56.5,30.29,SSW,196,2.0,8.0,60,0.00,CLR,,0.00,WeatherDisplay:10.37,2013-05-27 14:30:00,
2013-05-27 10:45:00,72.1,56.5,30.29,SSW,197,1.0,7.0,58,0.00,CLR,,0.00,WeatherDisplay:10.37,2013-05-27 14:45:00,
2013-05-27 11:00:00,72.9,57.3,30.29,SSW,192,1.0,13.0,58,0.00,CLR,,0.00,WeatherDisplay:10.37,2013-05-27 15:00:00,
2013-05-27 11:15:00,72.5,57.4,30.29,SW,224,2.0,12.0,59,0.00,CLR,,0.00,WeatherDisplay:10.37,2013-05-27 15:15:00,
2013-05-27 11:30:00,74.1,58.4,30.29,SSW,213,1.0,8.0,58,0.00,CLR,,0.00,WeatherDisplay:10.37,2013-05-27 15:30:00,
2013-05-27 11:45:00,74.2,57.0,30.29,WNW,293,2.0,7.0,55,0.00,CLR,,0.00,WeatherDisplay:10.37,2013-05-27 15:45:00,
2013-05-27 12:00:00,74.3,57.1,30.28,NW,325,5.0,9.0,55,0.00,CLR,,0.00,WeatherDisplay:10.37,2013-05-27 16:00:00,
2013-05-27 12:15:00,75.1,57.3,30.28,WSW,247,3.0,7.0,54,0.00,CLR,,0.00,WeatherDisplay:10.37,2013-05-27 16:15:00,
2013-05-27 12:30:00,75.4,57.6,30.28,SW,214,3.0,9.0,54,0.00,CLR,,0.00,WeatherDisplay:10.37,2013-05-27 16:30:00,
2013-05-27 12:45:00,76.2,58.4,30.27,SW,236,3.0,10.0,54,0.00,CLR,,0.00,WeatherDisplay:10.37,2013-05-27 16:45:00,
2013-05-27 13:00:00,77.3,56.6,30.27,SSW,211,2.0,9.0,49,0.00,CLR,,0.00,WeatherDisplay:10.37,2013-05-27 17:00:00,
2013-05-27 13:15:00,77.5,57.9,30.26,SW,235,2.0,7.0,51,0.00,CLR,,0.00,WeatherDisplay:10.37,2013-05-27 17:15:00,
2013-05-27 13:30:00,78.2,58.6,30.26,SSW,192,6.0,12.0,51,0.00,CLR,,0.00,WeatherDisplay:10.37,2013-05-27 17:30:00,
2013-05-27 13:45:00,77.9,58.9,30.26,SSW,195,3.0,12.0,52,0.00,CLR,,0.00,WeatherDisplay:10.37,2013-05-27 17:45:00,
2013-05-27 14:00:00,78.7,60.1,30.25,South,189,3.0,13.0,53,0.00,CLR,,0.00,WeatherDisplay:10.37,2013-05-27 18:00:00,
2013-05-27 14:15:00,79.3,59.6,30.25,SW,214,3.0,8.0,51,0.00,CLR,,0.00,WeatherDisplay:10.37,2013-05-27 18:15:00,
2013-05-27 14:30:00,79.1,59.4,30.25,SW,233,3.0,10.0,51,0.00,CLR,,0.00,WeatherDisplay:10.37,2013-05-27 18:30:00,
2013-05-27 14:45:00,78.4,58.2,30.24,WSW,244,3.0,12.0,50,0.00,CLR,,0.00,WeatherDisplay:10.37,2013-05-27 18:45:00,
2013-05-27 15:00:00,79.5,60.3,30.24,SW,230,5.0,12.0,52,0.00,CLR,,0.00,WeatherDisplay:10.37,2013-05-27 19:00:00,
2013-05-27 15:15:00,79.9,60.2,30.23,SSW,204,1.0,14.0,51,0.00,CLR,,0.00,WeatherDisplay:10.37,2013-05-27 19:15:00,
2013-05-27 15:30:00,79.8,59.5,30.22,WSW,237,5.0,9.0,50,0.00,CLR,,0.00,WeatherDisplay:10.37,2013-05-27 19:30:00,
2013-05-27 15:45:00,79.7,61.1,30.22,ESE,112,1.0,7.0,53,0.00,CLR,,0.00,WeatherDisplay:10.37,2013-05-27 19:45:00,
2013-05-27 16:00:00,79.9,60.2,30.21,SW,220,3.0,10.0,51,0.00,CLR,,0.00,WeatherDisplay:10.37,2013-05-27 20:00:00,
2013-05-27 16:15:00,78.9,59.8,30.20,SSW,201,2.0,10.0,52,0.00,CLR,,0.00,WeatherDisplay:10.37,2013-05-27 20:15:00,
2013-05-27 16:30:00,79.3,60.6,30.20,SW,221,2.0,8.0,53,0.00,CLR,,0.00,WeatherDisplay:10.37,2013-05-27 20:30:00,
2013-05-27 16:45:00,78.7,60.7,30.20,SE,125,2.0,6.0,54,0.00,CLR,,0.00,WeatherDisplay:10.37,2013-05-27 20:45:00,
2013-05-27 17:00:00,78.9,60.8,30.19,East,97,2.0,8.0,54,0.00,CLR,,0.00,WeatherDisplay:10.37,2013-05-27 21:00:00,
2013-05-27 17:15:00,79.1,61.0,30.20,South,183,5.0,12.0,54,0.00,CLR,,0.00,WeatherDisplay:10.37,2013-05-27 21:15:00,
2013-05-27 17:30:00,79.3,61.8,30.19,South,184,1.0,8.0,55,0.00,SCT,,0.00,WeatherDisplay:10.37,2013-05-27 21:30:00,
2013-05-27 17:45:00,78.9,61.4,30.20,SSW,195,1.0,7.0,55,0.00,SCT,,0.00,WeatherDisplay:10.37,2013-05-27 21:45:00,
2013-05-27 18:00:00,78.3,60.8,30.19,SE,136,1.0,5.0,55,0.00,SCT,,0.00,WeatherDisplay:10.37,2013-05-27 22:00:00,
2013-05-27 18:15:00,78.2,61.2,30.19,SSW,199,2.0,6.0,56,0.00,SCT,,0.00,WeatherDisplay:10.37,2013-05-27 22:15:00,
2013-05-27 18:30:00,77.9,60.4,30.19,NE,36,1.0,6.0,55,0.00,SCT,,0.00,WeatherDisplay:10.37,2013-05-27 22:30:00,
2013-05-27 18:45:00,77.6,60.7,30.19,ESE,119,0.0,6.0,56,0.00,SCT,,0.00,WeatherDisplay:10.37,2013-05-27 22:45:00,
2013-05-27 19:00:00,77.0,59.6,30.20,ENE,59,0.0,5.0,55,0.00,SCT,,0.00,WeatherDisplay:10.37,2013-05-27 23:00:00,
2013-05-27 19:15:00,76.3,58.9,30.20,SSW,195,0.0,5.0,55,0.00,SCT,,0.00,WeatherDisplay:10.37,2013-05-27 23:15:00,
2013-05-27 19:30:00,75.8,58.5,30.20,ENE,76,0.0,4.0,55,0.00,OVC,,0.00,WeatherDisplay:10.37,2013-05-27 23:30:00,
2013-05-27 19:45:00,74.9,58.1,30.20,ENE,76,0.0,2.0,56,0.00,OVC,,0.00,WeatherDisplay:10.37,2013-05-27 23:45:00,
2013-05-27 20:00:00,73.8,57.6,30.19,ESE,114,0.0,4.0,57,0.00,OVC,,0.00,WeatherDisplay:10.37,2013-05-28 00:00:00,
2013-05-27 20:15:00,72.6,56.5,30.18,ESE,111,0.0,3.0,57,0.00,OVC,,0.00,WeatherDisplay:10.37,2013-05-28 00:15:00,
2013-05-27 20:30:00,71.4,56.3,30.18,ESE,110,0.0,2.0,59,0.00,CLR,,0.00,WeatherDisplay:10.37,2013-05-28 00:30:00,
2013-05-27 20:45:00,70.3,55.8,30.18,ESE,107,0.0,2.0,60,0.00,CLR,,0.00,WeatherDisplay:10.37,2013-05-28 00:45:00,
2013-05-27 21:00:00,69.5,55.5,30.18,SE,143,0.0,3.0,61,0.00,CLR,,0.00,WeatherDisplay:10.37,2013-05-28 01:00:00,
2013-05-27 21:15:00,69.0,55.0,30.18,ESE,120,0.0,5.0,61,0.00,CLR,,0.00,WeatherDisplay:10.37,2013-05-28 01:15:00,
2013-05-27 21:30:00,68.3,55.2,30.19,ESE,116,0.0,3.0,63,0.00,CLR,,0.00,WeatherDisplay:10.37,2013-05-28 01:30:00,
2013-05-27 21:45:00,67.5,54.5,30.20,ESE,116,0.0,1.0,63,0.00,CLR,,0.00,WeatherDisplay:10.37,2013-05-28 01:45:00,
2013-05-27 22:00:00,66.8,54.7,30.21,ESE,116,0.0,0.0,65,0.00,CLR,,0.00,WeatherDisplay:10.37,2013-05-28 02:00:00,
2013-05-27 22:15:00,65.9,55.0,30.21,ESE,116,0.0,0.0,68,0.00,CLR,,0.00,WeatherDisplay:10.37,2013-05-28 02:15:00,
2013-05-27 22:30:00,64.7,55.1,30.22,ESE,116,0.0,0.0,71,0.00,CLR,,0.00,WeatherDisplay:10.37,2013-05-28 02:30:00,
2013-05-27 22:45:00,63.6,54.4,30.23,ESE,116,0.0,0.0,72,0.00,CLR,,0.00,WeatherDisplay:10.37,2013-05-28 02:45:00,
2013-05-27 23:00:00,62.7,54.3,30.23,ESE,116,0.0,0.0,74,0.00,CLR,,0.00,WeatherDisplay:10.37,2013-05-28 03:00:00,
2013-05-27 23:15:00,62.0,54.3,30.23,ESE,116,0.0,0.0,76,0.00,CLR,,0.00,WeatherDisplay:10.37,2013-05-28 03:15:00,
2013-05-27 23:30:00,61.4,54.1,30.23,ESE,116,0.0,0.0,77,0.00,SCT,,0.00,WeatherDisplay:10.37,2013-05-28 03:30:00,
2013-05-27 23:45:00,60.8,54.2,30.23,ESE,116,0.0,0.0,79,0.00,SCT,,0.00,WeatherDisplay:10.37,2013-05-28 03:45:00,